createdAt,value
2018-06-14T00:01:13.144Z,1.83
2018-06-14T00:03:41.640Z,2.20
2018-06-14T00:06:10.177Z,2.43
2018-06-14T00:08:38.768Z,2.50
2018-06-14T00:11:07.282Z,1.97
2018-06-14T00:13:35.765Z,2.00
2018-06-14T00:16:04.209Z,2.00
2018-06-14T00:18:32.716Z,2.00
2018-06-14T00:21:01.230Z,1.90
2018-06-14T00:23:29.695Z,1.80
2018-06-14T00:25:58.235Z,2.10
2018-06-14T00:28:26.787Z,2.23
2018-06-14T00:30:55.239Z,2.50
2018-06-14T00:33:24.040Z,2.00
2018-06-14T00:35:52.675Z,2.10
2018-06-14T00:38:21.264Z,1.80
2018-06-14T00:40:49.838Z,2.03
2018-06-14T00:43:18.400Z,2.17
2018-06-14T00:45:46.920Z,1.77
2018-06-14T00:48:15.498Z,2.20
2018-06-14T00:50:44.120Z,1.77
2018-06-14T00:53:12.667Z,2.30
2018-06-14T00:55:41.267Z,2.57
2018-06-14T00:58:09.761Z,2.47
2018-06-14T01:00:38.235Z,2.13
2018-06-14T01:03:06.764Z,2.23
2018-06-14T01:05:35.359Z,2.23
2018-06-14T01:08:03.874Z,2.47
2018-06-14T01:10:32.312Z,2.10
2018-06-14T01:13:00.810Z,2.03
2018-06-14T01:15:29.341Z,2.57
2018-06-14T01:17:57.930Z,2.20
2018-06-14T01:20:26.446Z,2.30
2018-06-14T01:22:54.958Z,2.10
2018-06-14T01:25:23.536Z,1.90
2018-06-14T01:27:52.062Z,2.40
2018-06-14T01:30:20.620Z,2.10
2018-06-14T01:32:49.178Z,1.73
2018-06-14T01:35:17.711Z,1.90
2018-06-14T01:37:57.455Z,2.30
2018-06-14T01:40:25.960Z,2.40
2018-06-14T01:42:54.528Z,1.67
2018-06-14T01:45:23.060Z,2.00
2018-06-14T01:47:51.772Z,1.93
2018-06-14T01:50:20.345Z,2.27
2018-06-14T01:52:48.860Z,1.87
2018-06-14T01:55:17.341Z,2.10
2018-06-14T01:57:45.881Z,1.90
2018-06-14T02:00:14.403Z,1.97
2018-06-14T02:02:42.960Z,2.10
2018-06-14T02:05:11.448Z,1.90
2018-06-14T02:07:40.064Z,1.77
2018-06-14T02:10:08.508Z,1.90
2018-06-14T02:12:36.989Z,1.93
2018-06-14T02:15:05.874Z,2.37
2018-06-14T02:17:34.464Z,2.10
2018-06-14T02:20:02.970Z,2.20
2018-06-14T02:22:31.570Z,2.23
2018-06-14T02:25:00.108Z,1.90
2018-06-14T02:27:28.636Z,2.20
2018-06-14T02:29:57.284Z,2.30
2018-06-14T02:32:25.875Z,2.50
2018-06-14T02:34:54.428Z,2.63
2018-06-14T02:37:23.027Z,2.03
2018-06-14T02:39:51.518Z,2.03
2018-06-14T02:42:20.717Z,2.17
2018-06-14T02:44:49.302Z,2.27
2018-06-14T02:47:17.820Z,2.17
2018-06-14T02:49:46.524Z,2.17
2018-06-14T02:52:15.083Z,2.03
2018-06-14T02:54:43.704Z,2.10
2018-06-14T02:57:12.233Z,1.83
2018-06-14T02:59:40.762Z,2.67
2018-06-14T03:02:09.245Z,1.80
2018-06-14T03:04:37.807Z,2.30
2018-06-14T03:07:06.723Z,2.17
2018-06-14T03:09:35.460Z,2.03
2018-06-14T03:12:04.071Z,2.00
2018-06-14T03:14:32.619Z,2.67
2018-06-14T03:17:01.102Z,2.10
2018-06-14T03:19:29.573Z,2.73
2018-06-14T03:21:58.152Z,2.27
2018-06-14T03:24:26.706Z,1.77
2018-06-14T03:26:55.239Z,2.00
2018-06-14T03:29:23.863Z,1.97
2018-06-14T03:31:52.388Z,2.10
2018-06-14T03:34:20.969Z,2.60
2018-06-14T03:36:49.501Z,2.70
2018-06-14T03:39:18.114Z,2.40
2018-06-14T03:41:46.743Z,2.37
2018-06-14T03:44:15.326Z,2.40
2018-06-14T03:46:43.898Z,2.37
2018-06-14T03:49:12.472Z,2.20
2018-06-14T03:51:40.980Z,2.50
2018-06-14T03:54:09.466Z,3.03
2018-06-14T03:56:37.988Z,2.77
2018-06-14T03:59:06.478Z,2.50
2018-06-14T04:01:35.133Z,2.80
2018-06-14T04:04:03.699Z,2.43
2018-06-14T04:06:32.252Z,2.63
2018-06-14T04:09:00.787Z,3.07
2018-06-14T04:11:29.322Z,2.60
2018-06-14T04:13:57.899Z,2.77
2018-06-14T04:16:26.403Z,2.70
2018-06-14T04:18:54.973Z,2.87
2018-06-14T04:21:23.573Z,3.00
2018-06-14T04:23:51.992Z,3.43
2018-06-14T04:26:20.513Z,2.63
2018-06-14T04:28:49.038Z,2.50
2018-06-14T04:31:17.489Z,3.17
2018-06-14T04:33:47.111Z,2.53
2018-06-14T04:36:15.596Z,3.23
2018-06-14T04:38:44.083Z,3.03
2018-06-14T04:41:12.584Z,2.87
2018-06-14T04:43:41.139Z,2.80
2018-06-14T04:46:09.652Z,2.70
2018-06-14T04:48:38.227Z,3.13
2018-06-14T04:51:06.693Z,2.97
2018-06-14T04:53:38.999Z,2.57
2018-06-14T04:56:08.330Z,2.87
2018-06-14T04:58:37.748Z,2.63
2018-06-14T05:01:06.906Z,3.37
2018-06-14T05:03:35.773Z,3.20
2018-06-14T05:06:04.314Z,3.20
2018-06-14T05:08:32.909Z,2.87
2018-06-14T05:11:02.139Z,2.67
2018-06-14T05:13:30.707Z,3.00
2018-06-14T05:16:03.518Z,3.33
2018-06-14T05:18:32.054Z,3.23
2018-06-14T05:21:00.534Z,3.03
2018-06-14T05:23:29.163Z,3.30
2018-06-14T05:25:57.716Z,2.97
2018-06-14T05:28:26.288Z,3.47
2018-06-14T05:30:54.766Z,3.77
2018-06-14T05:33:23.308Z,3.73
2018-06-14T05:35:51.841Z,2.90
2018-06-14T05:38:20.372Z,3.20
2018-06-14T05:40:48.857Z,3.00
2018-06-14T05:43:17.370Z,2.87
2018-06-14T05:45:45.880Z,3.20
2018-06-14T05:48:14.430Z,3.00
2018-06-14T05:50:42.962Z,3.60
2018-06-14T05:53:11.558Z,3.07
2018-06-14T05:55:40.190Z,2.90
2018-06-14T05:58:08.890Z,2.77
2018-06-14T06:00:37.437Z,2.40
2018-06-14T06:03:05.876Z,3.00
2018-06-14T06:05:34.350Z,2.70
2018-06-14T06:08:02.803Z,2.67
2018-06-14T06:10:31.395Z,2.90
2018-06-14T06:12:59.983Z,2.80
2018-06-14T06:15:28.379Z,2.80
2018-06-14T06:17:57.001Z,2.50
2018-06-14T06:20:25.432Z,2.37
2018-06-14T06:22:53.892Z,2.10
2018-06-14T06:25:22.396Z,2.97
2018-06-14T06:27:50.870Z,2.50
2018-06-14T06:30:19.322Z,2.83
2018-06-14T06:32:47.761Z,2.50
2018-06-14T06:35:16.303Z,2.83
2018-06-14T06:37:44.823Z,2.37
2018-06-14T06:40:13.277Z,2.40
2018-06-14T06:42:41.791Z,2.50
2018-06-14T06:45:10.415Z,2.10
2018-06-14T06:47:39.022Z,2.30
2018-06-14T06:50:07.561Z,2.33
2018-06-14T06:52:36.086Z,2.00
2018-06-14T06:55:04.694Z,1.90
2018-06-14T06:57:33.373Z,1.90
2018-06-14T07:00:01.962Z,2.00
2018-06-14T07:02:30.555Z,2.00
2018-06-14T07:04:59.348Z,1.98
2018-06-14T07:07:27.937Z,1.40
2018-06-14T07:09:56.632Z,1.73
2018-06-14T07:12:25.675Z,2.07
2018-06-14T07:14:54.090Z,2.07
2018-06-14T07:17:22.799Z,1.73
2018-06-14T07:19:51.265Z,1.70
2018-06-14T07:22:19.849Z,2.03
2018-06-14T07:24:48.432Z,1.63
2018-06-14T07:27:17.415Z,2.10
2018-06-14T07:29:46.029Z,1.70
2018-06-14T07:32:14.698Z,2.00
2018-06-14T07:34:43.356Z,1.87
2018-06-14T07:37:11.788Z,1.87
2018-06-14T07:39:40.164Z,1.93
2018-06-14T07:42:08.592Z,1.50
2018-06-14T07:44:36.990Z,1.50
2018-06-14T07:47:05.450Z,1.80
2018-06-14T07:49:33.904Z,1.33
2018-06-14T07:52:02.688Z,1.60
2018-06-14T07:54:31.128Z,1.50
2018-06-14T07:56:59.757Z,1.50
2018-06-14T07:59:28.181Z,1.37
2018-06-14T08:01:56.616Z,1.30
2018-06-14T08:04:25.033Z,1.50
2018-06-14T08:06:53.401Z,1.43
2018-06-14T08:09:22.367Z,1.30
2018-06-14T08:11:50.802Z,1.53
2018-06-14T08:14:19.183Z,1.10
2018-06-14T08:16:47.563Z,1.17
2018-06-14T08:19:15.985Z,1.00
2018-06-14T08:21:44.414Z,1.05
2018-06-14T08:24:12.884Z,1.20
2018-06-14T08:26:41.404Z,1.10
2018-06-14T08:29:09.852Z,1.20
2018-06-14T08:31:38.292Z,0.90
2018-06-14T08:34:06.741Z,1.27
2018-06-14T08:36:35.128Z,1.32
2018-06-14T08:39:04.457Z,1.40
2018-06-14T08:41:33.269Z,1.55
2018-06-14T08:44:01.773Z,1.62
2018-06-14T08:46:30.334Z,1.30
2018-06-14T08:48:59.446Z,0.80
2018-06-14T08:51:28.072Z,1.10
2018-06-14T08:53:56.536Z,1.37
2018-06-14T08:56:24.952Z,1.35
2018-06-14T08:58:53.362Z,1.02
2018-06-14T09:01:21.810Z,1.40
2018-06-14T09:03:50.287Z,1.20
2018-06-14T09:06:19.217Z,1.02
2018-06-14T09:08:47.688Z,1.10
2018-06-14T09:11:16.129Z,1.22
2018-06-14T09:13:44.529Z,1.10
2018-06-14T09:16:12.926Z,1.17
2018-06-14T09:18:41.324Z,1.47
2018-06-14T09:21:09.689Z,1.02
2018-06-14T09:23:38.047Z,0.98
2018-06-14T09:26:07.997Z,1.10
2018-06-14T09:28:37.079Z,1.10
2018-06-14T09:31:05.947Z,1.05
2018-06-14T09:33:34.460Z,1.10
2018-06-14T09:36:03.149Z,1.20
2018-06-14T09:38:31.646Z,1.07
2018-06-14T09:41:00.083Z,1.17
2018-06-14T09:43:28.530Z,1.35
2018-06-14T09:45:57.091Z,1.10
2018-06-14T09:48:25.535Z,1.00
2018-06-14T09:50:54.069Z,1.00
2018-06-14T09:53:22.511Z,1.25
2018-06-14T09:55:50.994Z,1.12
2018-06-14T09:58:19.515Z,1.20
2018-06-14T10:00:48.032Z,1.20
2018-06-14T10:03:17.065Z,0.98
2018-06-14T10:05:45.576Z,1.20
2018-06-14T10:08:14.780Z,1.10
2018-06-14T10:10:43.497Z,0.90
2018-06-14T10:13:12.001Z,1.20
2018-06-14T10:15:40.601Z,1.12
2018-06-14T10:18:09.104Z,1.15
2018-06-14T10:20:37.508Z,1.00
2018-06-14T10:23:05.877Z,1.25
2018-06-14T10:25:34.336Z,1.15
2018-06-14T10:28:02.786Z,1.00
2018-06-14T10:30:31.275Z,1.27
2018-06-14T10:32:59.701Z,1.17
2018-06-14T10:35:28.756Z,1.00
2018-06-14T10:37:57.243Z,1.05
2018-06-14T10:40:26.592Z,1.27
2018-06-14T10:42:55.227Z,1.10
2018-06-14T10:45:23.741Z,1.17
2018-06-14T10:47:52.400Z,1.00
2018-06-14T10:50:20.998Z,1.10
2018-06-14T10:52:50.737Z,0.88
2018-06-14T10:55:19.464Z,1.20
2018-06-14T10:57:48.012Z,1.20
2018-06-14T11:00:16.778Z,1.42
2018-06-14T11:02:45.367Z,1.10
2018-06-14T11:05:14.386Z,1.37
2018-06-14T11:07:43.040Z,1.37
2018-06-14T11:10:11.652Z,1.20
2018-06-14T11:12:40.204Z,1.33
2018-06-14T11:15:09.657Z,1.47
2018-06-14T11:17:38.247Z,1.40
2018-06-14T11:20:07.088Z,1.50
2018-06-14T11:22:35.687Z,1.50
2018-06-14T11:25:04.426Z,1.47
2018-06-14T11:27:33.193Z,1.27
2018-06-14T11:30:01.908Z,1.47
2018-06-14T11:32:30.671Z,1.50
2018-06-14T11:34:59.352Z,1.50
2018-06-14T11:37:28.044Z,1.33
2018-06-14T11:39:56.657Z,1.90
2018-06-14T11:42:25.264Z,1.50
2018-06-14T11:44:54.045Z,1.27
2018-06-14T11:47:23.687Z,1.50
2018-06-14T11:49:52.340Z,1.70
2018-06-14T11:52:21.124Z,1.27
2018-06-14T11:54:50.418Z,1.50
2018-06-14T11:57:19.450Z,1.37
2018-06-14T11:59:53.381Z,1.80
2018-06-14T12:02:22.749Z,1.63
2018-06-14T12:04:52.170Z,1.63
2018-06-14T12:07:20.664Z,1.33
2018-06-14T12:09:49.351Z,1.47
2018-06-14T12:12:18.253Z,1.50
2018-06-14T12:14:47.439Z,1.70
2018-06-14T12:17:15.958Z,1.40
2018-06-14T12:19:45.261Z,1.60
2018-06-14T12:22:13.904Z,1.57
2018-06-14T12:24:42.443Z,1.67
2018-06-14T12:27:11.194Z,1.50
2018-06-14T12:29:39.906Z,1.87
2018-06-14T12:32:08.537Z,1.77
2018-06-14T12:34:37.220Z,1.70
2018-06-14T12:37:05.815Z,1.80
2018-06-14T12:39:34.388Z,1.53
2018-06-14T12:42:03.861Z,1.53
2018-06-14T12:44:32.554Z,1.60
2018-06-14T12:47:01.197Z,1.60
2018-06-14T12:49:29.876Z,1.80
2018-06-14T12:51:58.503Z,1.60
2018-06-14T12:54:27.172Z,1.50
2018-06-14T12:56:55.799Z,1.77
2018-06-14T12:59:24.348Z,1.50
2018-06-14T13:01:52.919Z,1.70
2018-06-14T13:04:21.528Z,2.33
2018-06-14T13:06:50.930Z,1.97
2018-06-14T13:09:19.505Z,2.03
2018-06-14T13:11:49.128Z,2.70
2018-06-14T13:14:17.879Z,2.07
2018-06-14T13:16:46.554Z,1.90
2018-06-14T13:19:15.160Z,1.77
2018-06-14T13:21:43.660Z,1.90
2018-06-14T13:24:12.327Z,1.70
2018-06-14T13:26:40.914Z,1.70
2018-06-14T13:29:09.477Z,1.90
2018-06-14T13:31:38.236Z,2.10
2018-06-14T13:34:07.962Z,1.90
2018-06-14T13:36:36.691Z,2.00
2018-06-14T13:39:07.220Z,1.80
2018-06-14T13:41:35.904Z,1.70
2018-06-14T13:44:04.629Z,2.10
2018-06-14T13:46:33.275Z,1.87
2018-06-14T13:49:01.970Z,1.80
2018-06-14T13:51:31.470Z,2.30
2018-06-14T13:54:00.290Z,2.10
2018-06-14T13:56:29.031Z,2.10
2018-06-14T13:58:57.708Z,2.00
2018-06-14T14:01:26.389Z,2.00
2018-06-14T14:03:55.307Z,2.07
2018-06-14T14:06:24.150Z,2.03
2018-06-14T14:08:52.776Z,2.07
2018-06-14T14:11:21.367Z,2.10
2018-06-14T14:13:49.843Z,2.23
2018-06-14T14:16:18.447Z,2.10
2018-06-14T14:18:48.011Z,1.93
2018-06-14T14:21:16.665Z,2.17
2018-06-14T14:23:45.203Z,2.13
2018-06-14T14:26:13.837Z,2.33
2018-06-14T14:28:42.422Z,2.10
2018-06-14T14:31:10.934Z,2.40
2018-06-14T14:33:39.607Z,2.37
2018-06-14T14:36:08.190Z,1.97
2018-06-14T14:38:36.891Z,2.20
2018-06-14T14:41:05.656Z,1.97
2018-06-14T14:43:34.342Z,2.40
2018-06-14T14:46:03.055Z,2.00
2018-06-14T14:48:33.487Z,2.20
2018-06-14T14:51:02.814Z,1.90
2018-06-14T14:53:31.532Z,2.80
2018-06-14T14:56:00.801Z,2.30
2018-06-14T14:58:29.586Z,2.17
2018-06-14T15:00:58.209Z,2.23
2018-06-14T15:03:27.051Z,2.33
2018-06-14T15:05:55.595Z,2.10
2018-06-14T15:08:24.413Z,1.97
2018-06-14T15:10:53.135Z,2.70
2018-06-14T15:13:21.720Z,2.07
2018-06-14T15:15:50.469Z,2.03
2018-06-14T15:18:19.212Z,2.23
2018-06-14T15:20:48.829Z,2.40
2018-06-14T15:23:17.430Z,3.97
2018-06-14T15:25:45.957Z,2.90
2018-06-14T15:28:14.654Z,2.40
2018-06-14T15:30:43.272Z,2.30
2018-06-14T15:33:12.075Z,2.27
2018-06-14T15:35:40.830Z,1.80
2018-06-14T15:38:09.488Z,2.47
2018-06-14T15:40:38.079Z,1.80
2018-06-14T15:43:06.851Z,2.40
2018-06-14T15:45:35.572Z,2.10
2018-06-14T15:48:04.350Z,3.40
2018-06-14T15:50:32.984Z,4.10
2018-06-14T15:53:01.619Z,3.77
2018-06-14T15:55:56.900Z,3.37
2018-06-14T15:58:25.646Z,2.70
2018-06-14T16:00:54.221Z,2.20
2018-06-14T16:03:22.734Z,2.30
2018-06-14T16:05:51.388Z,2.50
2018-06-14T16:08:19.972Z,2.73
2018-06-14T16:10:48.668Z,2.13
2018-06-14T16:13:17.443Z,2.13
2018-06-14T16:15:46.053Z,2.20
2018-06-14T16:18:14.879Z,2.43
2018-06-14T16:20:44.962Z,2.50
2018-06-14T16:23:13.631Z,2.70
2018-06-14T16:25:42.369Z,2.20
2018-06-14T16:28:11.432Z,2.17
2018-06-14T16:30:40.306Z,2.30
2018-06-14T16:33:09.542Z,2.50
2018-06-14T16:35:38.307Z,5.30
2018-06-14T16:38:07.157Z,3.70
2018-06-14T16:40:36.037Z,2.50
2018-06-14T16:43:04.969Z,2.60
2018-06-14T16:45:33.727Z,2.43
2018-06-14T16:48:02.608Z,2.33
2018-06-14T16:50:33.781Z,4.03
2018-06-14T16:53:05.252Z,4.40
2018-06-14T16:55:34.523Z,3.20
2018-06-14T16:58:06.832Z,4.90
2018-06-14T17:02:00.072Z,3.10
2018-06-14T17:04:31.656Z,2.80
2018-06-14T17:07:03.067Z,2.37
2018-06-14T17:09:34.835Z,2.10
2018-06-14T17:12:06.214Z,2.10
2018-06-14T17:14:39.507Z,3.13
2018-06-14T17:17:10.235Z,2.13
2018-06-14T17:19:39.438Z,2.03
2018-06-14T17:22:09.301Z,2.07
2018-06-14T17:24:40.193Z,2.07
2018-06-14T17:27:10.271Z,4.97
2018-06-14T17:29:39.582Z,4.30
2018-06-14T17:32:09.198Z,6.67
2018-06-14T17:34:38.132Z,5.17
2018-06-14T17:37:07.885Z,5.40
2018-06-14T17:39:36.912Z,3.10
2018-06-14T17:42:06.105Z,3.30
2018-06-14T17:44:36.965Z,2.40
2018-06-14T17:47:05.820Z,2.10
2018-06-14T17:49:34.859Z,2.00
2018-06-14T17:52:04.695Z,2.30
2018-06-14T17:54:33.668Z,2.00
2018-06-14T17:57:02.474Z,1.93
2018-06-14T17:59:31.060Z,2.00
2018-06-14T18:02:01.123Z,2.10
2018-06-14T18:04:30.112Z,2.00
2018-06-14T18:06:59.245Z,2.17
2018-06-14T18:09:27.777Z,2.10
2018-06-14T18:11:56.337Z,2.10
2018-06-14T18:14:24.819Z,2.23
2018-06-14T18:17:01.468Z,2.77
2018-06-14T18:19:29.918Z,2.23
2018-06-14T18:21:59.150Z,1.93
2018-06-14T18:24:29.539Z,1.93
2018-06-14T18:26:58.140Z,2.17
2018-06-14T18:29:26.868Z,2.00
2018-06-14T18:31:55.811Z,1.90
2018-06-14T18:34:24.259Z,2.00
2018-06-14T18:36:55.019Z,2.20
2018-06-14T18:39:24.479Z,1.93
2018-06-14T18:41:53.180Z,2.10
2018-06-14T18:44:21.737Z,2.30
2018-06-14T18:46:51.994Z,2.33
2018-06-14T18:49:20.495Z,2.10
2018-06-14T18:51:49.163Z,2.03
2018-06-14T18:54:17.744Z,1.93
2018-06-14T18:56:49.392Z,2.10
2018-06-14T18:59:17.999Z,2.60
2018-06-14T19:01:47.692Z,3.37
2018-06-14T19:04:16.719Z,4.40
2018-06-14T19:06:45.515Z,3.83
2018-06-14T19:09:14.265Z,3.77
2018-06-14T19:11:42.967Z,3.53
2018-06-14T19:14:11.691Z,2.70
2018-06-14T19:16:40.484Z,2.50
2018-06-14T19:19:09.436Z,2.40
2018-06-14T19:21:40.274Z,2.37
2018-06-14T19:24:10.281Z,2.60
2018-06-14T19:26:38.991Z,2.50
2018-06-14T19:29:07.573Z,2.90
2018-06-14T19:31:36.948Z,3.07
2018-06-14T19:34:07.312Z,3.47
2018-06-14T19:36:37.040Z,3.40
2018-06-14T19:39:11.296Z,3.07
2018-06-14T19:41:44.027Z,3.13
2018-06-14T19:44:12.965Z,3.70
2018-06-14T19:46:41.568Z,3.63
2018-06-14T19:49:10.089Z,3.50
2018-06-14T19:51:38.581Z,3.00
2018-06-14T19:54:07.119Z,3.67
2018-06-14T19:56:35.646Z,3.50
2018-06-14T19:59:04.221Z,3.27
2018-06-14T20:01:35.146Z,2.93
2018-06-14T20:04:04.172Z,3.77
2018-06-14T20:06:34.229Z,3.00
2018-06-14T20:09:02.765Z,3.10
2018-06-14T20:11:31.304Z,2.83
2018-06-14T20:13:59.887Z,3.23
2018-06-14T20:16:28.453Z,3.10
2018-06-14T20:18:57.031Z,2.90
2018-06-14T20:21:25.537Z,3.07
2018-06-14T20:23:54.173Z,3.00
2018-06-14T20:26:22.719Z,3.17
2018-06-14T20:28:51.332Z,3.60
2018-06-14T20:31:20.674Z,3.90
2018-06-14T20:33:49.223Z,3.47
2018-06-14T20:36:18.259Z,3.73
2018-06-14T20:38:46.771Z,5.50
2018-06-14T20:41:15.240Z,5.23
2018-06-14T20:43:44.283Z,5.10
2018-06-14T20:46:14.093Z,4.37
2018-06-14T20:48:43.176Z,4.50
2018-06-14T20:51:11.797Z,5.70
2018-06-14T20:53:40.292Z,5.10
2018-06-14T20:56:10.432Z,4.57
2018-06-14T20:58:38.947Z,5.10
2018-06-14T21:01:07.473Z,4.33
2018-06-14T21:03:35.978Z,4.37
2018-06-14T21:06:04.464Z,4.33
2018-06-14T21:08:33.057Z,4.47
2018-06-14T21:11:01.600Z,4.33
2018-06-14T21:13:30.111Z,4.57
2018-06-14T21:15:58.726Z,4.27
2018-06-14T21:18:27.462Z,4.50
2018-06-14T21:20:57.113Z,4.90
2018-06-14T21:23:25.893Z,4.63
2018-06-14T21:25:56.781Z,5.27
2018-06-14T21:28:25.481Z,4.97
2018-06-14T21:30:54.185Z,4.63
2018-06-14T21:33:23.545Z,4.70
2018-06-14T21:35:52.232Z,5.40
2018-06-14T21:38:20.944Z,4.50
2018-06-14T21:40:49.565Z,4.30
2018-06-14T21:43:18.227Z,4.63
2018-06-14T21:45:47.138Z,4.60
2018-06-14T21:48:15.948Z,5.70
2018-06-14T21:50:45.429Z,4.33
2018-06-14T21:53:14.417Z,5.00
2018-06-14T21:55:43.128Z,5.13
2018-06-14T21:58:12.213Z,4.97
2018-06-14T22:00:40.967Z,4.77
2018-06-14T22:03:14.980Z,5.03
2018-06-14T22:05:45.061Z,5.07
2018-06-14T22:08:15.590Z,4.60
2018-06-14T22:10:44.718Z,4.43
2018-06-14T22:13:14.371Z,4.60
2018-06-14T22:15:43.834Z,4.90
2018-06-14T22:18:13.200Z,4.67
2018-06-14T22:20:41.956Z,4.63
2018-06-14T22:23:10.714Z,5.10
2018-06-14T22:25:39.528Z,4.23
2018-06-14T22:28:08.392Z,4.63
2018-06-14T22:30:37.695Z,4.20
2018-06-14T22:33:17.655Z,4.27
2018-06-14T22:35:46.960Z,4.37
2018-06-14T22:38:15.829Z,4.63
2018-06-14T22:40:44.732Z,4.23
2018-06-14T22:43:14.317Z,4.20
